Terminal Aerodrome Forecast
Issued by NWS Sioux Falls, SD

Home | Current Version | Previous Version | Graphics & Text | Print | Product List | Glossary On
Versions: 1 2 3 4 5 6 7 8 9 10 11 12 13 14 15 16 17 18 19 20 21 22 23 24 25 26 27 28 29 30 31 32 33 34 35 36 37 38 39 40 41 42
405
FTUS43 KFSD 280301 AAA
TAFSUX
TAF AMD
KSUX 280301Z 2803/2824 07015KT 6SM -RA SCT009 OVC060
      TEMPO 2803/2805 BKN009
     FM280500 05011KT P6SM -SHRA OVC010
     FM281200 02012KT P6SM VCSH OVC008
     FM281700 02011KT P6SM OVC015=

USA.gov is the U.S. government's official web portal to all federal, state and local government web resources and services.